Time;durP1;ratioP1;P1;durP2;ratioP2;P2;SDS_P1;SDS_P2;PMS_P1;PMS_P2;Temp;Humidity;BMP_temperature;BMP_pressure;BME280_temperature;BME280_humidity;BME280_pressure;Samples;Min_cycle;Max_cycle;Signal;HPM_P1;HPM_P2
2023/01/01 00:01:42;;;;;;;;;;;18.10;65.30;;;;;;5085660;28;43046;-77
2023/01/01 00:04:12;;;;;;;;;;;18.10;65.40;;;;;;5085770;28;42913;-76
2023/01/01 00:06:38;;;;;;;;;;;18.10;65.30;;;;;;5085707;28;43405;-77
2023/01/01 00:11:47;;;;;;;;;;;18.30;65.30;;;;;;5084651;28;42969;-76
2023/01/01 00:14:13;;;;;;;;;;;18.20;64.90;;;;;;5085126;28;43016;-77
2023/01/01 00:16:38;;;;;;;;;;;18.30;64.80;;;;;;5085501;27;43603;-78
2023/01/01 00:19:04;;;;;;;;;;;18.20;64.70;;;;;;5085579;28;42934;-76
2023/01/01 00:21:29;;;;;;;;;;;18.20;65.00;;;;;;5085122;28;43554;-77
2023/01/01 00:23:55;;;;;;;;;;;18.20;65.00;;;;;;5085170;28;42920;-79
2023/01/01 00:26:20;;;;;;;;;;;18.20;65.00;;;;;;5073783;28;42937;-75
2023/01/01 00:28:46;;;;;;;;;;;18.20;64.90;;;;;;5083935;28;42963;-77
2023/01/01 00:31:15;;;;;;;;;;;18.30;64.80;;;;;;5084919;28;43548;-76
2023/01/01 00:33:41;;;;;;;;;;;18.30;64.90;;;;;;5068087;28;42918;-77
2023/01/01 00:36:08;;;;;;;;;;;18.30;64.50;;;;;;5084967;28;43677;-76
2023/01/01 00:38:33;;;;;;;;;;;18.30;64.80;;;;;;5084948;28;43128;-76
2023/01/01 00:40:59;;;;;;;;;;;18.30;64.70;;;;;;5084950;28;42925;-76
2023/01/01 00:43:25;;;;;;;;;;;18.30;64.40;;;;;;5085027;28;42824;-76
2023/01/01 00:45:53;;;;;;;;;;;18.30;64.50;;;;;;5073021;28;43050;-76
2023/01/01 00:48:19;;;;;;;;;;;18.30;64.50;;;;;;5072170;28;43037;-76
2023/01/01 00:50:46;;;;;;;;;;;18.20;64.50;;;;;;5085170;28;43780;-76
2023/01/01 00:53:11;;;;;;;;;;;18.30;64.70;;;;;;5097557;27;42841;-77
2023/01/01 00:55:38;;;;;;;;;;;18.30;64.50;;;;;;5084853;28;43008;-76
2023/01/01 00:58:03;;;;;;;;;;;18.30;64.50;;;;;;5084390;28;43030;-76
2023/01/01 01:00:29;;;;;;;;;;;18.30;64.50;;;;;;5084538;28;43018;-79
2023/01/01 01:02:54;;;;;;;;;;;18.30;64.50;;;;;;5083480;28;43072;-79
2023/01/01 01:05:20;;;;;;;;;;;18.30;64.40;;;;;;5083701;28;43113;-80
2023/01/01 01:07:45;;;;;;;;;;;18.30;64.30;;;;;;5078808;28;43108;-78
2023/01/01 01:10:11;;;;;;;;;;;18.40;64.30;;;;;;5082485;28;43449;-79
2023/01/01 01:12:36;;;;;;;;;;;18.30;64.20;;;;;;5082346;28;43107;-87
2023/01/01 01:15:02;;;;;;;;;;;18.30;64.70;;;;;;5080595;28;43662;-78
2023/01/01 01:17:28;;;;;;;;;;;18.30;64.50;;;;;;5083530;28;43407;-80
2023/01/01 01:19:54;;;;;;;;;;;18.30;64.30;;;;;;5074577;27;44841;-75
2023/01/01 01:22:19;;;;;;;;;;;18.30;64.40;;;;;;5082511;28;43012;-80
2023/01/01 01:24:45;;;;;;;;;;;18.30;65.00;;;;;;5083610;28;43005;-80
2023/01/01 01:27:10;;;;;;;;;;;18.30;64.50;;;;;;5077844;28;42941;-76
2023/01/01 01:29:36;;;;;;;;;;;18.40;64.40;;;;;;5083954;27;43472;-80
2023/01/01 01:32:02;;;;;;;;;;;18.30;64.40;;;;;;5078751;28;43008;-80
2023/01/01 01:34:27;;;;;;;;;;;18.40;64.40;;;;;;5084118;28;43853;-80
2023/01/01 01:36:53;;;;;;;;;;;18.30;64.30;;;;;;5085814;28;42958;-78
2023/01/01 01:39:18;;;;;;;;;;;18.30;64.30;;;;;;5087408;27;43646;-81
2023/01/01 01:41:44;;;;;;;;;;;18.40;64.30;;;;;;5085630;28;43005;-82
2023/01/01 01:44:28;;;;;;;;;;;18.40;64.50;;;;;;5085898;28;42978;-82
2023/01/01 01:46:55;;;;;;;;;;;18.30;64.80;;;;;;5084134;28;43268;-82
2023/01/01 01:49:25;;;;;;;;;;;18.30;64.60;;;;;;5068868;28;43089;-77
2023/01/01 01:51:50;;;;;;;;;;;18.20;64.70;;;;;;5085568;27;42846;-77
2023/01/01 01:54:18;;;;;;;;;;;18.30;64.90;;;;;;5084589;28;42989;-75
2023/01/01 01:56:50;;;;;;;;;;;18.30;65.30;;;;;;5085424;28;43306;-78
2023/01/01 01:59:17;;;;;;;;;;;18.30;64.60;;;;;;5076479;28;43798;-76
2023/01/01 02:01:43;;;;;;;;;;;18.30;64.70;;;;;;5071460;28;43070;-79
2023/01/01 02:04:09;;;;;;;;;;;18.20;64.70;;;;;;5077507;28;43909;-81
2023/01/01 02:06:34;;;;;;;;;;;18.30;65.10;;;;;;5078318;28;43293;-81
2023/01/01 02:09:01;;;;;;;;;;;18.30;64.80;;;;;;5082211;28;43043;-77
2023/01/01 02:11:27;;;;;;;;;;;18.30;64.80;;;;;;5076425;28;42955;-78
2023/01/01 02:13:53;;;;;;;;;;;18.30;64.90;;;;;;5085108;28;43033;-76
2023/01/01 02:16:28;;;;;;;;;;;18.30;65.00;;;;;;5073865;28;43962;-75
2023/01/01 02:19:04;;;;;;;;;;;18.20;65.00;;;;;;5076604;28;44285;-79
2023/01/01 02:21:34;;;;;;;;;;;18.20;65.20;;;;;;5075499;28;43038;-79
2023/01/01 02:24:10;;;;;;;;;;;18.30;65.40;;;;;;5253383;22;44877;-80
2023/01/01 02:26:41;;;;;;;;;;;18.20;66.10;;;;;;5079819;28;43167;-74
2023/01/01 02:29:06;;;;;;;;;;;18.10;66.40;;;;;;5079869;28;43616;-74
2023/01/01 02:31:39;;;;;;;;;;;18.10;66.80;;;;;;5081051;28;42906;-74
2023/01/01 02:34:06;;;;;;;;;;;18.10;66.80;;;;;;5083134;28;43829;-75
2023/01/01 02:36:32;;;;;;;;;;;18.10;66.50;;;;;;5084441;28;42988;-75
2023/01/01 02:39:00;;;;;;;;;;;18.10;66.90;;;;;;5084480;28;42860;-75
2023/01/01 02:41:52;;;;;;;;;;;18.20;66.80;;;;;;5081107;27;43053;-75
2023/01/01 02:44:18;;;;;;;;;;;18.20;66.20;;;;;;5075941;28;44529;-75
2023/01/01 02:46:44;;;;;;;;;;;18.20;67.50;;;;;;5084863;28;43070;-74
2023/01/01 02:49:10;;;;;;;;;;;18.10;67.70;;;;;;5084172;28;43413;-74
2023/01/01 02:51:44;;;;;;;;;;;18.10;67.90;;;;;;5085465;28;43146;-74
2023/01/01 02:54:13;;;;;;;;;;;18.10;68.00;;;;;;5076602;28;43448;-75
2023/01/01 02:56:41;;;;;;;;;;;18.10;68.10;;;;;;5084442;28;42992;-74
2023/01/01 03:02:17;;;;;;;;;;;18.10;68.30;;;;;;5073548;28;43250;-74
2023/01/01 03:04:42;;;;;;;;;;;18.10;68.40;;;;;;5061762;28;44853;-75
2023/01/01 03:07:26;;;;;;;;;;;18.30;68.70;;;;;;5082681;28;44034;-74
2023/01/01 03:09:55;;;;;;;;;;;18.10;68.60;;;;;;5085079;28;43527;-73
2023/01/01 03:12:38;;;;;;;;;;;18.10;68.70;;;;;;5084992;28;42898;-74
2023/01/01 03:15:16;;;;;;;;;;;18.10;68.80;;;;;;5085697;28;43669;-73
2023/01/01 03:17:46;;;;;;;;;;;18.10;68.90;;;;;;5073207;28;43656;-74
2023/01/01 03:20:15;;;;;;;;;;;18.10;68.90;;;;;;5086066;28;43704;-75
2023/01/01 03:22:42;;;;;;;;;;;18.10;69.00;;;;;;5087212;28;43016;-74
2023/01/01 03:25:18;;;;;;;;;;;18.10;69.00;;;;;;5082329;28;44184;-72
2023/01/01 03:27:48;;;;;;;;;;;18.10;69.10;;;;;;5082143;28;42996;-75
2023/01/01 03:30:15;;;;;;;;;;;18.10;69.20;;;;;;5081326;28;42999;-74
2023/01/01 03:35:29;;;;;;;;;;;18.20;69.40;;;;;;5082184;28;43183;-74
2023/01/01 03:37:56;;;;;;;;;;;18.10;69.40;;;;;;5079827;28;42915;-75
2023/01/01 03:40:22;;;;;;;;;;;18.10;69.50;;;;;;5078449;28;42933;-73
2023/01/01 03:42:53;;;;;;;;;;;18.10;69.60;;;;;;5083288;28;42941;-74
2023/01/01 03:45:20;;;;;;;;;;;18.10;69.70;;;;;;5079762;28;43796;-76
2023/01/01 03:47:46;;;;;;;;;;;18.20;70.00;;;;;;5083326;28;43108;-73
2023/01/01 03:50:13;;;;;;;;;;;18.20;69.90;;;;;;5082303;28;43813;-73
2023/01/01 03:52:53;;;;;;;;;;;18.10;70.00;;;;;;5074583;28;43147;-73
2023/01/01 03:55:28;;;;;;;;;;;18.10;70.20;;;;;;5085445;28;43339;-73
2023/01/01 03:57:53;;;;;;;;;;;18.10;70.20;;;;;;5066119;28;42938;-74
2023/01/01 04:00:21;;;;;;;;;;;18.20;70.20;;;;;;5067412;28;43211;-75
2023/01/01 04:02:53;;;;;;;;;;;18.20;70.40;;;;;;5083913;28;42858;-73
2023/01/01 04:05:20;;;;;;;;;;;18.20;70.30;;;;;;5074996;28;44081;-73
2023/01/01 04:07:46;;;;;;;;;;;18.20;70.60;;;;;;5085148;28;42925;-74
2023/01/01 04:10:18;;;;;;;;;;;18.10;70.80;;;;;;5085037;28;43618;-76
2023/01/01 04:12:44;;;;;;;;;;;18.10;71.00;;;;;;5082435;28;42993;-76
2023/01/01 04:15:10;;;;;;;;;;;18.10;71.20;;;;;;5082220;28;43297;-75
2023/01/01 04:17:36;;;;;;;;;;;18.10;71.30;;;;;;5069839;28;43031;-74
2023/01/01 04:20:01;;;;;;;;;;;18.10;71.60;;;;;;5078171;28;42968;-76
2023/01/01 04:22:27;;;;;;;;;;;18.10;71.70;;;;;;5083936;28;43039;-76
2023/01/01 04:24:52;;;;;;;;;;;18.10;71.80;;;;;;5079033;28;43441;-75
2023/01/01 04:27:17;;;;;;;;;;;18.10;71.80;;;;;;5082442;28;42859;-76
2023/01/01 04:29:43;;;;;;;;;;;18.10;72.00;;;;;;5079834;28;42966;-74
2023/01/01 04:32:08;;;;;;;;;;;18.00;72.00;;;;;;5084924;28;42840;-74
2023/01/01 04:34:34;;;;;;;;;;;18.10;72.20;;;;;;5081867;28;42848;-75
2023/01/01 04:36:59;;;;;;;;;;;18.10;72.60;;;;;;5074119;28;42764;-75
2023/01/01 04:39:25;;;;;;;;;;;18.10;72.80;;;;;;5065397;28;44142;-75
2023/01/01 04:41:50;;;;;;;;;;;18.10;72.90;;;;;;5084317;28;43361;-76
2023/01/01 04:44:16;;;;;;;;;;;18.10;73.00;;;;;;5083434;28;42930;-74
2023/01/01 04:46:41;;;;;;;;;;;18.10;73.20;;;;;;5084112;28;43202;-75
2023/01/01 04:49:07;;;;;;;;;;;18.10;73.40;;;;;;5083027;28;43351;-75
2023/01/01 04:51:32;;;;;;;;;;;18.10;73.20;;;;;;5083617;28;42890;-74
2023/01/01 04:53:58;;;;;;;;;;;18.10;73.30;;;;;;5083736;28;43401;-77
2023/01/01 04:56:24;;;;;;;;;;;18.10;73.60;;;;;;5083510;28;43041;-75
2023/01/01 04:58:50;;;;;;;;;;;18.10;73.80;;;;;;5083023;28;43049;-75
2023/01/01 05:01:20;;;;;;;;;;;18.10;73.90;;;;;;5076891;28;43007;-75
2023/01/01 05:03:46;;;;;;;;;;;18.10;74.20;;;;;;5079413;28;42985;-74
2023/01/01 05:06:12;;;;;;;;;;;18.10;74.40;;;;;;5082053;28;43011;-76
2023/01/01 05:08:38;;;;;;;;;;;18.10;74.40;;;;;;5082572;28;43028;-75
2023/01/01 05:11:06;;;;;;;;;;;18.10;74.50;;;;;;5081607;28;42958;-74
2023/01/01 05:13:33;;;;;;;;;;;18.10;74.60;;;;;;5083411;28;42965;-74
2023/01/01 05:16:01;;;;;;;;;;;18.10;74.70;;;;;;5083632;28;42898;-75
2023/01/01 05:18:26;;;;;;;;;;;18.10;74.80;;;;;;5082313;28;44238;-75
2023/01/01 05:20:52;;;;;;;;;;;18.10;75.00;;;;;;5083948;28;43009;-75
2023/01/01 05:23:17;;;;;;;;;;;18.20;75.10;;;;;;5082291;28;42788;-75
2023/01/01 05:25:43;;;;;;;;;;;18.20;75.20;;;;;;5065339;28;42839;-76
2023/01/01 05:28:09;;;;;;;;;;;18.20;75.30;;;;;;5081268;28;43469;-75
2023/01/01 05:30:37;;;;;;;;;;;18.20;75.60;;;;;;5083493;28;43017;-75
2023/01/01 05:33:03;;;;;;;;;;;18.20;75.80;;;;;;5083151;28;43536;-74
2023/01/01 05:35:28;;;;;;;;;;;18.20;75.90;;;;;;5084134;28;42808;-75
2023/01/01 05:37:54;;;;;;;;;;;18.20;76.10;;;;;;5082518;28;44212;-74
2023/01/01 05:40:21;;;;;;;;;;;18.20;76.20;;;;;;5072305;28;43098;-74
2023/01/01 05:42:47;;;;;;;;;;;18.20;76.40;;;;;;5076772;28;42924;-74
2023/01/01 05:45:12;;;;;;;;;;;18.20;76.40;;;;;;5082989;28;42789;-74
2023/01/01 05:47:38;;;;;;;;;;;18.20;76.40;;;;;;5083132;28;43782;-74
2023/01/01 05:50:03;;;;;;;;;;;18.20;76.40;;;;;;5081015;28;43004;-78
2023/01/01 05:52:29;;;;;;;;;;;18.20;76.60;;;;;;5082174;28;43663;-76
2023/01/01 05:54:54;;;;;;;;;;;18.20;76.70;;;;;;5083875;28;42951;-75
2023/01/01 05:57:20;;;;;;;;;;;18.20;76.40;;;;;;5082972;28;42965;-75
2023/01/01 05:59:45;;;;;;;;;;;18.20;76.60;;;;;;5078623;28;43376;-75
2023/01/01 06:02:11;;;;;;;;;;;18.20;76.50;;;;;;5080593;28;43031;-76
2023/01/01 06:04:36;;;;;;;;;;;18.20;76.60;;;;;;5083104;28;43255;-75
2023/01/01 06:07:02;;;;;;;;;;;18.20;76.60;;;;;;5082880;28;43429;-74
2023/01/01 06:09:27;;;;;;;;;;;18.20;76.60;;;;;;5081077;28;43112;-74
2023/01/01 06:11:53;;;;;;;;;;;18.20;76.80;;;;;;5082464;28;43751;-74
2023/01/01 06:14:18;;;;;;;;;;;18.20;76.70;;;;;;5083652;28;43009;-74
2023/01/01 06:16:44;;;;;;;;;;;18.20;76.60;;;;;;5085966;28;42918;-74
2023/01/01 06:19:09;;;;;;;;;;;18.20;76.40;;;;;;5081262;28;43060;-74
2023/01/01 06:21:35;;;;;;;;;;;18.20;76.50;;;;;;5066702;28;42974;-75
2023/01/01 06:24:00;;;;;;;;;;;18.20;76.70;;;;;;5085234;28;42898;-76
2023/01/01 06:26:30;;;;;;;;;;;18.20;76.60;;;;;;5075412;28;43838;-74
2023/01/01 06:28:56;;;;;;;;;;;18.20;76.70;;;;;;5066892;28;43001;-76
2023/01/01 06:31:22;;;;;;;;;;;18.20;76.60;;;;;;5073656;28;43139;-74
2023/01/01 06:33:49;;;;;;;;;;;18.20;76.70;;;;;;5084827;28;44497;-74
2023/01/01 06:36:16;;;;;;;;;;;18.20;76.90;;;;;;5077327;28;43436;-75
2023/01/01 06:38:43;;;;;;;;;;;18.20;76.80;;;;;;5079891;28;42995;-78
2023/01/01 06:41:19;;;;;;;;;;;18.20;76.40;;;;;;5074676;28;43945;-74
2023/01/01 06:43:44;;;;;;;;;;;18.20;76.40;;;;;;5085692;28;42859;-75
2023/01/01 06:46:22;;;;;;;;;;;18.20;76.60;;;;;;5084564;28;43452;-74
2023/01/01 06:48:48;;;;;;;;;;;18.20;76.70;;;;;;5057294;28;43003;-76
2023/01/01 06:51:18;;;;;;;;;;;18.20;77.00;;;;;;5083838;28;42919;-74
2023/01/01 06:53:44;;;;;;;;;;;18.20;77.00;;;;;;5081490;28;42942;-74
2023/01/01 06:56:10;;;;;;;;;;;18.30;77.00;;;;;;5082801;28;43955;-74
2023/01/01 06:58:36;;;;;;;;;;;18.30;76.90;;;;;;5072494;28;43160;-74
2023/01/01 07:01:02;;;;;;;;;;;18.20;76.90;;;;;;5084999;28;42780;-73
2023/01/01 07:03:28;;;;;;;;;;;18.30;76.90;;;;;;5086400;28;42957;-74
2023/01/01 07:05:53;;;;;;;;;;;18.30;76.90;;;;;;5086086;28;43148;-73
2023/01/01 07:08:19;;;;;;;;;;;18.30;76.90;;;;;;5077206;28;43018;-74
2023/01/01 07:10:44;;;;;;;;;;;18.30;77.00;;;;;;5085333;28;43183;-74
2023/01/01 07:13:10;;;;;;;;;;;18.30;77.10;;;;;;5085527;28;42957;-73
2023/01/01 07:15:36;;;;;;;;;;;18.20;77.00;;;;;;5085762;28;43479;-74
2023/01/01 07:18:01;;;;;;;;;;;18.30;77.70;;;;;;5072931;28;42952;-73
2023/01/01 07:20:27;;;;;;;;;;;18.30;77.20;;;;;;5084995;28;42962;-74
2023/01/01 07:22:53;;;;;;;;;;;18.30;77.20;;;;;;5077269;28;43052;-74
2023/01/01 07:25:18;;;;;;;;;;;18.30;77.10;;;;;;5081503;28;42962;-74
2023/01/01 07:27:44;;;;;;;;;;;18.30;77.20;;;;;;5085346;27;42917;-74
2023/01/01 07:30:09;;;;;;;;;;;18.30;77.20;;;;;;5071364;28;43364;-75
2023/01/01 07:32:35;;;;;;;;;;;18.30;77.20;;;;;;5085349;28;42889;-75
2023/01/01 07:35:00;;;;;;;;;;;18.30;77.20;;;;;;5084975;28;43114;-75
2023/01/01 07:37:26;;;;;;;;;;;18.20;77.30;;;;;;5067877;28;43487;-74
2023/01/01 07:39:51;;;;;;;;;;;18.30;77.20;;;;;;5071518;28;42994;-75
2023/01/01 07:42:17;;;;;;;;;;;18.30;77.20;;;;;;5084740;28;43017;-75
2023/01/01 07:44:43;;;;;;;;;;;18.30;77.40;;;;;;5083010;28;45110;-74
2023/01/01 07:47:19;;;;;;;;;;;18.30;77.30;;;;;;5070554;28;43066;-74
2023/01/01 07:49:45;;;;;;;;;;;18.30;77.30;;;;;;5073050;28;42906;-74
2023/01/01 07:52:10;;;;;;;;;;;18.30;77.50;;;;;;5081543;28;42901;-75
2023/01/01 07:54:36;;;;;;;;;;;18.30;77.70;;;;;;5084035;27;44183;-74
2023/01/01 07:57:01;;;;;;;;;;;18.30;77.60;;;;;;5080704;28;42742;-73
2023/01/01 07:59:27;;;;;;;;;;;18.30;77.60;;;;;;5083246;28;42775;-74
2023/01/01 08:01:52;;;;;;;;;;;18.30;77.70;;;;;;5073614;28;42994;-75
2023/01/01 08:04:18;;;;;;;;;;;18.30;77.70;;;;;;5081476;28;42937;-74
2023/01/01 08:06:44;;;;;;;;;;;18.30;77.60;;;;;;5079297;28;43024;-74
2023/01/01 08:09:09;;;;;;;;;;;18.30;77.80;;;;;;5062742;28;43397;-75
2023/01/01 08:11:35;;;;;;;;;;;18.30;77.80;;;;;;5081615;28;42988;-74
2023/01/01 08:14:00;;;;;;;;;;;18.30;77.90;;;;;;5078918;28;43478;-74
2023/01/01 08:16:26;;;;;;;;;;;18.20;77.80;;;;;;5081601;28;43445;-74
2023/01/01 08:18:51;;;;;;;;;;;18.30;77.90;;;;;;5079811;28;43205;-75
2023/01/01 08:21:17;;;;;;;;;;;18.20;77.80;;;;;;5080269;28;42982;-74
2023/01/01 08:23:42;;;;;;;;;;;18.30;78.10;;;;;;5082278;28;43076;-74
2023/01/01 08:26:13;;;;;;;;;;;18.20;78.10;;;;;;5083574;28;42937;-74
2023/01/01 08:28:38;;;;;;;;;;;18.20;78.10;;;;;;5075953;28;42992;-74
2023/01/01 08:31:04;;;;;;;;;;;18.20;78.10;;;;;;5055463;28;43098;-73
2023/01/01 08:33:29;;;;;;;;;;;18.20;78.10;;;;;;5076944;28;43517;-75
2023/01/01 08:35:55;;;;;;;;;;;18.20;78.00;;;;;;5079845;28;43075;-73
2023/01/01 08:38:21;;;;;;;;;;;18.20;78.00;;;;;;5075272;28;43012;-75
2023/01/01 08:40:46;;;;;;;;;;;18.20;78.10;;;;;;5080715;28;42981;-73
2023/01/01 08:43:12;;;;;;;;;;;18.20;78.10;;;;;;5071598;28;43050;-75
2023/01/01 08:45:37;;;;;;;;;;;18.20;78.20;;;;;;5076417;28;43007;-73
2023/01/01 08:48:03;;;;;;;;;;;18.30;78.00;;;;;;5080939;28;43100;-75
2023/01/01 08:50:28;;;;;;;;;;;18.30;78.10;;;;;;5083124;28;43077;-73
2023/01/01 08:52:54;;;;;;;;;;;18.30;77.80;;;;;;5079081;28;44042;-73
2023/01/01 08:55:19;;;;;;;;;;;18.30;77.70;;;;;;5081183;28;43135;-74
2023/01/01 08:57:45;;;;;;;;;;;18.30;77.50;;;;;;5061154;28;44088;-74
2023/01/01 09:00:12;;;;;;;;;;;18.30;77.60;;;;;;5082615;28;43088;-73
2023/01/01 09:02:37;;;;;;;;;;;18.30;78.20;;;;;;5077325;28;43315;-74
2023/01/01 09:05:03;;;;;;;;;;;18.30;77.60;;;;;;5081158;28;43342;-73
2023/01/01 09:07:29;;;;;;;;;;;18.30;77.60;;;;;;5080927;28;43703;-73
2023/01/01 09:09:54;;;;;;;;;;;18.30;77.60;;;;;;5060584;28;43225;-73
2023/01/01 09:12:20;;;;;;;;;;;18.30;77.50;;;;;;5076616;28;43260;-75
2023/01/01 09:14:48;;;;;;;;;;;18.30;77.50;;;;;;5078569;28;42954;-74
2023/01/01 09:17:14;;;;;;;;;;;18.40;77.60;;;;;;5082040;28;44215;-77
2023/01/01 09:19:39;;;;;;;;;;;18.40;77.60;;;;;;5082444;28;42958;-76
2023/01/01 09:22:09;;;;;;;;;;;18.40;77.60;;;;;;5081310;28;42921;-76
2023/01/01 09:24:34;;;;;;;;;;;18.30;77.50;;;;;;5078454;28;42976;-73
2023/01/01 09:27:00;;;;;;;;;;;18.40;77.70;;;;;;5060334;28;44336;-74
2023/01/01 09:29:25;;;;;;;;;;;18.30;77.60;;;;;;5074503;28;42857;-76
2023/01/01 09:31:51;;;;;;;;;;;18.40;77.80;;;;;;5079772;28;42975;-76
2023/01/01 09:34:16;;;;;;;;;;;18.40;77.80;;;;;;5076276;28;43083;-76
2023/01/01 09:36:42;;;;;;;;;;;18.40;77.80;;;;;;5078484;28;43650;-74
2023/01/01 09:39:12;;;;;;;;;;;18.40;77.80;;;;;;5082741;28;42977;-75
2023/01/01 09:41:56;;;;;;;;;;;18.40;77.70;;;;;;5076450;27;43923;-75
2023/01/01 09:44:28;;;;;;;;;;;18.40;77.70;;;;;;5076296;28;42954;-76
2023/01/01 09:46:57;;;;;;;;;;;18.40;77.80;;;;;;5079325;28;42868;-75
2023/01/01 09:49:26;;;;;;;;;;;18.40;77.80;;;;;;5080707;27;42962;-74
2023/01/01 09:51:53;;;;;;;;;;;18.40;77.80;;;;;;5082766;28;42900;-77
2023/01/01 09:54:26;;;;;;;;;;;18.40;77.80;;;;;;5084789;28;43674;-73
2023/01/01 09:56:53;;;;;;;;;;;18.40;77.90;;;;;;5083077;28;43052;-74
2023/01/01 09:59:20;;;;;;;;;;;18.40;78.00;;;;;;5079075;28;43083;-75
2023/01/01 10:01:51;;;;;;;;;;;18.40;78.10;;;;;;5074933;28;44124;-77
2023/01/01 10:04:26;;;;;;;;;;;18.40;78.10;;;;;;5078523;28;43409;-76
2023/01/01 10:06:54;;;;;;;;;;;18.40;78.70;;;;;;5081376;28;43430;-75
2023/01/01 10:09:22;;;;;;;;;;;18.40;78.10;;;;;;5078789;28;43059;-75
2023/01/01 10:11:48;;;;;;;;;;;18.40;78.40;;;;;;5075678;28;43118;-75
2023/01/01 10:14:16;;;;;;;;;;;18.40;78.20;;;;;;5083288;28;42785;-77
2023/01/01 10:16:43;;;;;;;;;;;18.40;78.20;;;;;;5083012;28;43841;-75
2023/01/01 10:19:21;;;;;;;;;;;18.40;78.20;;;;;;5084444;28;42952;-76
2023/01/01 10:21:48;;;;;;;;;;;18.40;78.20;;;;;;5080344;28;43799;-75
2023/01/01 10:24:23;;;;;;;;;;;18.40;78.30;;;;;;5080575;28;43044;-75
2023/01/01 10:26:49;;;;;;;;;;;18.40;78.30;;;;;;5083084;28;43051;-76
2023/01/01 10:29:18;;;;;;;;;;;18.40;78.40;;;;;;5082217;28;43406;-76
2023/01/01 10:31:46;;;;;;;;;;;18.40;78.30;;;;;;5080651;28;43030;-75
2023/01/01 10:34:23;;;;;;;;;;;18.40;78.40;;;;;;5084235;28;43313;-76
2023/01/01 10:36:50;;;;;;;;;;;18.40;78.50;;;;;;5059921;28;45081;-77
2023/01/01 10:39:16;;;;;;;;;;;18.40;78.60;;;;;;5076142;28;43291;-76
2023/01/01 10:41:43;;;;;;;;;;;18.40;78.70;;;;;;5079944;28;43906;-76
2023/01/01 10:44:09;;;;;;;;;;;18.40;79.00;;;;;;5079593;28;43028;-74
2023/01/01 10:46:35;;;;;;;;;;;18.40;79.30;;;;;;5073796;28;43154;-73
2023/01/01 10:49:02;;;;;;;;;;;18.40;79.10;;;;;;5078294;28;42961;-75
2023/01/01 10:51:28;;;;;;;;;;;18.30;78.20;;;;;;5080755;28;43048;-73
2023/01/01 10:53:54;;;;;;;;;;;18.30;77.70;;;;;;5086119;28;42913;-74
2023/01/01 10:56:21;;;;;;;;;;;18.30;76.20;;;;;;5085010;28;43003;-74
2023/01/01 10:58:49;;;;;;;;;;;18.40;73.10;;;;;;5063528;28;43127;-73
2023/01/01 11:01:19;;;;;;;;;;;18.40;71.60;;;;;;5066669;28;43690;-75
2023/01/01 11:03:56;;;;;;;;;;;18.40;69.80;;;;;;5085296;28;42903;-73
2023/01/01 11:06:21;;;;;;;;;;;18.40;69.80;;;;;;5073692;28;43636;-74
2023/01/01 11:08:48;;;;;;;;;;;18.40;70.40;;;;;;5075131;28;43288;-72
2023/01/01 11:11:40;;;;;;;;;;;18.40;70.50;;;;;;5076712;28;43698;-72
2023/01/01 11:14:17;;;;;;;;;;;18.40;70.90;;;;;;5080934;28;42894;-75
2023/01/01 11:16:44;;;;;;;;;;;18.40;65.90;;;;;;5079192;28;43053;-74
2023/01/01 11:19:16;;;;;;;;;;;18.30;62.90;;;;;;5075148;28;43025;-75
2023/01/01 11:21:45;;;;;;;;;;;18.30;61.30;;;;;;5080264;28;43056;-77
2023/01/01 11:24:19;;;;;;;;;;;18.30;60.50;;;;;;5074531;28;43036;-79
2023/01/01 11:26:45;;;;;;;;;;;18.30;59.50;;;;;;5078836;28;44012;-79
2023/01/01 11:29:18;;;;;;;;;;;18.30;59.60;;;;;;5078493;28;43029;-79
2023/01/01 11:31:45;;;;;;;;;;;18.30;59.40;;;;;;5085208;28;42961;-81
2023/01/01 11:34:28;;;;;;;;;;;18.30;59.60;;;;;;5085481;28;42895;-79
2023/01/01 11:37:14;;;;;;;;;;;18.30;59.80;;;;;;5074233;28;43084;-79
2023/01/01 11:39:47;;;;;;;;;;;18.30;59.70;;;;;;5085871;28;43094;-82
2023/01/01 11:42:17;;;;;;;;;;;18.30;59.40;;;;;;5078409;28;42968;-76
2023/01/01 11:44:48;;;;;;;;;;;18.30;59.70;;;;;;5088396;28;42888;-79
2023/01/01 11:47:25;;;;;;;;;;;18.30;59.70;;;;;;5085804;28;43429;-76
2023/01/01 11:49:55;;;;;;;;;;;18.30;59.50;;;;;;5057682;28;43546;-76
2023/01/01 11:52:47;;;;;;;;;;;18.30;59.90;;;;;;5083007;28;42890;-75
2023/01/01 11:55:15;;;;;;;;;;;18.30;61.00;;;;;;5079893;28;42931;-76
2023/01/01 11:57:45;;;;;;;;;;;18.20;63.20;;;;;;5063918;28;43713;-75
2023/01/01 12:00:14;;;;;;;;;;;18.20;63.90;;;;;;5077125;28;43064;-73
2023/01/01 12:02:45;;;;;;;;;;;18.20;64.60;;;;;;5079500;28;43157;-77
2023/01/01 12:05:23;;;;;;;;;;;18.20;65.00;;;;;;5077588;28;43045;-75
2023/01/01 12:07:48;;;;;;;;;;;18.20;65.50;;;;;;5081343;28;43466;-74
2023/01/01 12:10:18;;;;;;;;;;;18.20;66.50;;;;;;5076893;28;43025;-73
2023/01/01 12:12:55;;;;;;;;;;;18.20;66.60;;;;;;5078388;27;43065;-75
2023/01/01 12:15:24;;;;;;;;;;;18.20;67.00;;;;;;5074879;28;42977;-74
2023/01/01 12:18:02;;;;;;;;;;;18.20;67.20;;;;;;5079156;28;43005;-77
2023/01/01 12:20:29;;;;;;;;;;;18.20;67.30;;;;;;5077271;28;42980;-77
2023/01/01 12:22:55;;;;;;;;;;;18.20;67.40;;;;;;5079021;28;43096;-74
2023/01/01 12:25:21;;;;;;;;;;;18.30;67.50;;;;;;5080361;28;43277;-72
2023/01/01 12:28:02;;;;;;;;;;;18.20;67.50;;;;;;5081573;28;43234;-73
2023/01/01 12:30:32;;;;;;;;;;;18.30;67.50;;;;;;5080990;28;43856;-76
2023/01/01 12:33:15;;;;;;;;;;;18.30;67.70;;;;;;5080487;28;43018;-74
2023/01/01 12:35:47;;;;;;;;;;;18.30;67.70;;;;;;5061389;28;42988;-73
2023/01/01 12:38:12;;;;;;;;;;;18.30;67.70;;;;;;5080766;28;43668;-74
2023/01/01 12:40:50;;;;;;;;;;;18.30;67.70;;;;;;5080675;28;43002;-75
2023/01/01 12:43:20;;;;;;;;;;;18.30;67.40;;;;;;5080997;28;43626;-75
2023/01/01 12:45:52;;;;;;;;;;;18.30;64.50;;;;;;5083177;28;43106;-73
2023/01/01 12:48:23;;;;;;;;;;;18.20;65.00;;;;;;5079515;28;43696;-75
2023/01/01 12:51:07;;;;;;;;;;;18.30;67.10;;;;;;5076107;28;43005;-75
2023/01/01 12:53:43;;;;;;;;;;;18.30;67.60;;;;;;5078908;28;43360;-73
2023/01/01 12:56:11;;;;;;;;;;;18.30;67.80;;;;;;5081851;28;43222;-78
2023/01/01 12:58:39;;;;;;;;;;;18.20;59.60;;;;;;5077739;28;43107;-80
2023/01/01 13:01:12;;;;;;;;;;;18.20;58.10;;;;;;5075379;28;42968;-78
2023/01/01 13:03:57;;;;;;;;;;;18.20;57.60;;;;;;5079420;28;43819;-77
2023/01/01 13:06:27;;;;;;;;;;;18.10;57.70;;;;;;5080289;28;42819;-77
2023/01/01 13:08:58;;;;;;;;;;;18.10;57.60;;;;;;5078464;28;43808;-76
2023/01/01 13:11:26;;;;;;;;;;;18.10;57.40;;;;;;5062291;28;42998;-77
2023/01/01 13:13:52;;;;;;;;;;;18.00;57.30;;;;;;5074251;28;43015;-76
2023/01/01 13:16:35;;;;;;;;;;;17.90;57.30;;;;;;5083345;28;42990;-77
2023/01/01 13:19:01;;;;;;;;;;;17.90;57.50;;;;;;5079999;28;43494;-74
2023/01/01 13:21:27;;;;;;;;;;;17.80;59.40;;;;;;5083032;28;43007;-73
2023/01/01 13:23:53;;;;;;;;;;;17.80;60.80;;;;;;5079036;27;43030;-73
2023/01/01 13:26:19;;;;;;;;;;;17.90;62.10;;;;;;5085072;28;42946;-75
2023/01/01 13:28:51;;;;;;;;;;;17.90;63.20;;;;;;5088778;28;42945;-77
2023/01/01 13:31:16;;;;;;;;;;;17.90;63.80;;;;;;5082489;28;43059;-77
2023/01/01 13:33:42;;;;;;;;;;;17.90;64.10;;;;;;5083807;28;43111;-74
2023/01/01 13:36:07;;;;;;;;;;;18.00;64.60;;;;;;5082412;28;43262;-75
2023/01/01 13:38:52;;;;;;;;;;;18.00;65.10;;;;;;5079940;28;43993;-77
2023/01/01 13:41:36;;;;;;;;;;;18.10;65.40;;;;;;5081352;28;43163;-73
2023/01/01 13:44:02;;;;;;;;;;;18.10;66.10;;;;;;5083804;28;43009;-74
2023/01/01 13:46:43;;;;;;;;;;;18.10;66.60;;;;;;5082249;28;42995;-74
2023/01/01 13:49:21;;;;;;;;;;;18.10;66.90;;;;;;5068714;28;45228;-77
2023/01/01 13:52:05;;;;;;;;;;;18.20;66.70;;;;;;5088361;28;43025;-75
2023/01/01 13:54:38;;;;;;;;;;;18.20;67.50;;;;;;5103451;28;42684;-73
2023/01/01 13:57:22;;;;;;;;;;;18.20;67.90;;;;;;5098296;28;43080;-76
2023/01/01 14:00:06;;;;;;;;;;;18.20;68.20;;;;;;5097306;28;43109;-74
2023/01/01 14:02:36;;;;;;;;;;;18.20;68.60;;;;;;5095715;28;42957;-72
2023/01/01 14:05:04;;;;;;;;;;;18.20;69.00;;;;;;5097004;28;43025;-73
2023/01/01 14:07:39;;;;;;;;;;;18.30;69.30;;;;;;5089262;28;42816;-75
2023/01/01 14:10:27;;;;;;;;;;;18.30;69.50;;;;;;5085001;28;43056;-73
2023/01/01 14:12:55;;;;;;;;;;;18.30;69.80;;;;;;5073496;28;42972;-77
2023/01/01 14:15:31;;;;;;;;;;;18.30;70.10;;;;;;5082589;28;43225;-78
2023/01/01 14:17:58;;;;;;;;;;;18.30;70.30;;;;;;5086951;28;43021;-78
2023/01/01 14:20:44;;;;;;;;;;;18.30;70.50;;;;;;5083444;28;43040;-76
2023/01/01 14:23:12;;;;;;;;;;;18.30;70.60;;;;;;5081914;28;42851;-76
2023/01/01 14:25:39;;;;;;;;;;;18.30;70.80;;;;;;5082969;28;43566;-75
2023/01/01 14:28:11;;;;;;;;;;;18.30;71.00;;;;;;5081790;28;44463;-74
2023/01/01 14:30:37;;;;;;;;;;;18.30;71.10;;;;;;5084704;28;43518;-77
2023/01/01 14:33:02;;;;;;;;;;;18.40;71.30;;;;;;5079488;28;43253;-78